DWD Radarbild

   
[Quelle: ADDS]
METAR
EDLP 220220Z 13007KT CAVOK 12/00 Q1014 =
EDLP 212300Z 2200/2224 12007KT CAVOK BECMG 2207/2210 11014KT TEMPO 2210/2218 10015G25KT BECMG 2218/2220 10009KT
TAF
EDLP 212300Z 2200/2224 12007KT CAVOK BECMG 2207/2210 11014KT TEMPO 2210/2218 10015G25KT BECMG 2218/2220 10009KT =
   
   

Meine WettercamWettercam aus Bielefeld Senne - Blickrichtung Süd-Ostjede Min. ein neues Bild

   
Moon phase
Phase:
Abnehmend

Mondphase:
91%

Alter:
18 Tage

Entfernung:
239,592 Km

Zeit:
04:59:41

Datum:
22-04-2019

   
<<  Apr 2019  >>
 Mo  Di  Mi  Do  Fr  Sa  So 
  1  2  3  4  5  6  7
  8  91011121314
15161718192021
22232425262728
2930